Time;durP1;ratioP1;P1;durP2;ratioP2;P2;SDS_P1;SDS_P2;PMS_P1;PMS_P2;Temp;Humidity;BMP_temperature;BMP_pressure;BME280_temperature;BME280_humidity;BME280_pressure;Samples;Min_cycle;Max_cycle;Signal;HPM_P1;HPM_P2
2022/05/25 00:01:24;;;;;;;5.68;4.90;;;;;;;;;;5036310;28;20131;-86
2022/05/25 00:03:50;;;;;;;6.82;5.40;;;;;;;;;;5035816;28;20041;-87
2022/05/25 00:06:16;;;;;;;7.13;5.15;;;;;;;;;;5035193;28;20045;-87
2022/05/25 00:08:42;;;;;;;10.75;5.35;;;;;;;;;;5038209;28;20086;-85
2022/05/25 00:11:09;;;;;;;7.90;5.38;;;;;;;;;;5035744;28;20040;-85
2022/05/25 00:13:36;;;;;;;6.10;5.22;;;;;;;;;;5035585;28;20053;-86
2022/05/25 00:16:02;;;;;;;6.25;5.65;;;;;;;;;;5035738;28;20136;-85
2022/05/25 00:18:30;;;;;;;5.90;5.30;;;;;;;;;;5039867;28;20048;-86
2022/05/25 00:20:56;;;;;;;6.53;5.40;;;;;;;;;;5055379;28;20045;-88
2022/05/25 00:23:22;;;;;;;8.95;6.07;;;;;;;;;;5071723;28;20081;-88
2022/05/25 00:25:48;;;;;;;7.88;5.22;;;;;;;;;;5055224;28;20123;-85
2022/05/25 00:28:15;;;;;;;11.10;6.18;;;;;;;;;;5072015;28;20040;-86
2022/05/25 00:30:42;;;;;;;8.85;6.30;;;;;;;;;;5040401;28;20037;-85
2022/05/25 00:33:08;;;;;;;8.63;6.05;;;;;;;;;;5051172;28;20093;-84
2022/05/25 00:35:35;;;;;;;10.35;6.53;;;;;;;;;;5038483;28;20055;-84
2022/05/25 00:38:01;;;;;;;6.65;5.93;;;;;;;;;;5055099;28;20066;-84
2022/05/25 00:40:38;;;;;;;7.47;6.30;;;;;;;;;;5040738;28;20071;-84
2022/05/25 00:43:05;;;;;;;6.55;5.32;;;;;;;;;;5054842;28;20473;-84
2022/05/25 00:45:51;;;;;;;6.32;5.70;;;;;;;;;;5055140;28;20053;-84
2022/05/25 00:48:22;;;;;;;8.73;5.82;;;;;;;;;;5038070;28;20040;-84
2022/05/25 00:53:33;;;;;;;7.28;6.55;;;;;;;;;;5054857;28;20049;-85
2022/05/25 00:56:00;;;;;;;10.32;6.32;;;;;;;;;;5038412;28;20113;-84
2022/05/25 00:58:26;;;;;;;10.68;7.00;;;;;;;;;;5038122;28;20070;-84
2022/05/25 01:00:52;;;;;;;9.18;6.28;;;;;;;;;;5056114;28;20763;-84
2022/05/25 01:03:19;;;;;;;10.00;7.28;;;;;;;;;;5056412;28;20388;-85
2022/05/25 01:05:45;;;;;;;8.13;6.43;;;;;;;;;;5057697;28;20492;-84
2022/05/25 01:08:33;;;;;;;9.85;7.13;;;10.30;99.90;;;;;;5074179;28;20144;-85
2022/05/25 01:11:05;;;;;;;10.23;7.53;;;;;;;;;;5050031;28;20488;-84
2022/05/25 01:13:37;;;;;;;11.00;6.97;;;;;;;;;;5037643;28;20139;-84
2022/05/25 01:16:03;;;;;;;11.80;7.22;;;;;;;;;;5037664;28;20063;-84
2022/05/25 01:18:35;;;;;;;10.85;7.70;;;;;;;;;;5037165;28;20093;-84
2022/05/25 01:21:23;;;;;;;11.02;7.60;;;10.10;99.90;;;;;;5039945;28;20040;-84
2022/05/25 01:23:49;;;;;;;11.07;7.22;;;;;;;;;;5037055;28;20052;-84
2022/05/25 01:26:15;;;;;;;9.25;8.30;;;;;;;;;;5053963;28;20052;-84
2022/05/25 01:28:53;;;;;;;10.20;7.82;;;;;;;;;;5054355;28;20044;-84
2022/05/25 01:31:23;;;;;;;9.88;7.40;;;;;;;;;;5038597;28;20515;-84
2022/05/25 01:33:53;;;;;;;9.27;7.75;;;;;;;;;;5052819;28;20053;-84
2022/05/25 01:36:23;;;;;;;9.73;7.70;;;;;;;;;;5037993;28;20040;-84
2022/05/25 01:38:56;;;;;;;11.80;7.50;;;;;;;;;;5046189;28;20551;-84
2022/05/25 01:41:45;;;;;;;12.77;7.90;;;;;;;;;;5057166;28;20185;-84
2022/05/25 01:44:14;;;;;;;13.90;8.70;;;;;;;;;;5073966;28;20040;-84
2022/05/25 01:46:49;;;;;;;10.80;7.88;;;;;;;;;;5070692;28;20040;-84
2022/05/25 01:49:18;;;;;;;15.13;7.78;;;;;;;;;;5057078;28;20044;-83
2022/05/25 01:51:55;;;;;;;9.00;7.55;;;9.90;99.90;;;;;;5057035;28;20087;-84
2022/05/25 01:54:24;;;;;;;10.02;8.27;;;10.00;99.90;;;;;;5056828;28;20054;-85
2022/05/25 01:56:53;;;;;;;18.55;8.93;;;;;;;;;;5055461;28;20036;-84
2022/05/25 01:59:19;;;;;;;13.85;8.52;;;;;;;;;;5072263;28;20127;-85
2022/05/25 02:04:19;;;;;;;18.17;8.18;;;;;;;;;;5073550;28;20044;-85
2022/05/25 02:04:38;;;;;;;10.93;8.15;;;;;;;;;;5073701;28;20147;-84
2022/05/25 02:07:05;;;;;;;13.13;8.00;;;;;;;;;;5056651;28;20048;-85
2022/05/25 02:10:04;;;;;;;10.68;8.10;;;9.90;99.90;;;;;;5040938;28;20040;-84
2022/05/25 02:12:39;;;;;;;10.32;8.23;;;;;;;;;;5036537;28;20139;-85
2022/05/25 02:15:11;;;;;;;15.20;7.78;;;;;;;;;;5053846;28;20087;-84
2022/05/25 02:17:37;;;;;;;10.10;8.02;;;;;;;;;;5036625;28;20055;-85
2022/05/25 02:20:05;;;;;;;16.63;9.02;;;;;;;;;;5039127;28;20036;-85
2022/05/25 02:22:36;;;;;;;13.57;7.97;;;;;;;;;;5037075;28;20048;-84
2022/05/25 02:25:18;;;;;;;11.13;8.73;;;9.80;99.90;;;;;;5036745;28;20141;-84
2022/05/25 02:27:47;;;;;;;11.65;8.60;;;;;;;;;;5036301;28;20613;-84
2022/05/25 02:30:15;;;;;;;14.35;9.05;;;;;;;;;;5064909;28;20101;-84
2022/05/25 02:32:46;;;;;;;18.23;10.02;;;;;;;;;;5073261;28;20087;-84
2022/05/25 02:35:13;;;;;;;14.10;9.40;;;;;;;;;;5056105;28;20052;-84
2022/05/25 02:37:39;;;;;;;13.80;9.88;;;;;;;;;;5056355;28;20078;-84
2022/05/25 02:40:07;;;;;;;15.77;9.48;;;;;;;;;;5051733;28;20051;-85
2022/05/25 02:42:37;;;;;;;12.38;8.80;;;;;;;;;;5052862;28;20493;-85
2022/05/25 02:45:03;;;;;;;15.68;9.70;;;;;;;;;;5036722;28;20501;-87
2022/05/25 02:47:29;;;;;;;14.77;9.52;;;;;;;;;;5036774;28;20106;-86
2022/05/25 02:49:55;;;;;;;12.15;9.10;;;;;;;;;;5052846;28;20110;-85
2022/05/25 02:52:21;;;;;;;17.67;9.85;;;;;;;;;;5054431;28;20051;-85
2022/05/25 02:54:47;;;;;;;15.25;9.02;;;;;;;;;;5056103;28;20066;-86
2022/05/25 02:57:13;;;;;;;15.27;10.65;;;;;;;;;;5091102;28;20044;-86
2022/05/25 02:59:39;;;;;;;13.77;9.70;;;;;;;;;;5072699;28;20079;-85
2022/05/25 03:02:05;;;;;;;15.23;9.77;;;;;;;;;;5089467;28;20070;-86
2022/05/25 03:04:32;;;;;;;10.48;9.38;;;;;;;;;;5072938;28;20048;-85
2022/05/25 03:06:58;;;;;;;13.23;9.75;;;;;;;;;;5073036;28;20052;-85
2022/05/25 03:09:24;;;;;;;16.45;9.85;;;;;;;;;;5091160;28;20072;-85
2022/05/25 03:11:50;;;;;;;13.70;9.90;;;;;;;;;;5087508;28;20032;-86
2022/05/25 03:14:17;;;;;;;15.68;11.00;;;;;;;;;;5035414;28;20583;-86
2022/05/25 03:16:43;;;;;;;13.55;9.80;;;;;;;;;;5052516;28;20517;-85
2022/05/25 03:19:09;;;;;;;16.42;11.15;;;;;;;;;;5070937;28;20048;-85
2022/05/25 03:21:35;;;;;;;13.05;10.50;;;;;;;;;;5036185;28;20045;-87
2022/05/25 03:24:01;;;;;;;13.45;10.32;;;;;;;;;;5069409;28;20392;-85
2022/05/25 03:26:27;;;;;;;15.43;10.05;;;;;;;;;;5056178;28;20047;-86
2022/05/25 03:28:53;;;;;;;14.52;10.27;;;;;;;;;;5055758;28;20059;-87
2022/05/25 03:31:19;;;;;;;14.30;10.10;;;;;;;;;;5055901;28;20047;-88
2022/05/25 03:33:45;;;;;;;17.17;9.73;;;;;;;;;;5049285;28;20104;-89
2022/05/25 03:36:11;;;;;;;16.10;10.60;;;;;;;;;;5036266;28;20071;-87
2022/05/25 03:38:37;;;;;;;17.88;11.32;;;;;;;;;;5035679;28;20131;-86
2022/05/25 03:41:04;;;;;;;19.73;11.32;;;;;;;;;;5037812;28;20049;-84
2022/05/25 03:43:31;;;;;;;16.83;11.10;;;;;;;;;;5040659;28;20737;-84
2022/05/25 03:45:57;;;;;;;18.40;11.98;;;;;;;;;;5075670;28;20565;-85
2022/05/25 03:48:23;;;;;;;15.63;11.85;;;;;;;;;;5059528;28;20048;-85
2022/05/25 03:50:49;;;;;;;14.18;10.70;;;;;;;;;;5076255;28;20036;-89
2022/05/25 03:53:16;;;;;;;19.35;12.07;;;;;;;;;;5059493;28;20044;-85
2022/05/25 03:55:42;;;;;;;19.98;13.00;;;;;;;;;;5046257;28;20492;-86
2022/05/25 03:58:09;;;;;;;18.63;12.50;;;;;;;;;;5039302;28;20560;-87
2022/05/25 04:00:35;;;;;;;17.95;11.55;;;;;;;;;;5055714;28;20044;-88
2022/05/25 04:03:02;;;;;;;14.85;12.68;;;;;;;;;;5039179;28;20041;-86
2022/05/25 04:05:32;;;;;;;17.25;12.75;;;;;;;;;;5041715;28;20086;-87
2022/05/25 04:07:58;;;;;;;15.85;13.15;;;;;;;;;;5055911;28;20045;-90
2022/05/25 04:10:25;;;;;;;21.98;13.90;;;;;;;;;;5047025;28;20040;-88
2022/05/25 04:12:51;;;;;;;15.98;12.48;;;;;;;;;;5059129;28;20036;-85
2022/05/25 04:15:21;;;;;;;18.80;12.57;;;;;;;;;;5075672;28;20040;-87
2022/05/25 04:17:48;;;;;;;19.40;13.77;;;;;;;;;;5093999;28;20194;-85
2022/05/25 04:20:14;;;;;;;20.63;12.02;;;;;;;;;;5074080;28;20055;-87
2022/05/25 04:22:40;;;;;;;20.00;13.20;;;;;;;;;;5058859;28;20115;-85
2022/05/25 04:25:07;;;;;;;19.50;13.00;;;;;;;;;;5058705;28;20051;-85
2022/05/25 04:27:34;;;;;;;23.08;13.32;;;;;;;;;;5058508;28;20063;-89
2022/05/25 04:30:00;;;;;;;20.25;13.60;;;;;;;;;;5075771;28;20480;-90
2022/05/25 04:32:26;;;;;;;24.30;13.88;;;;;;;;;;5043218;28;20048;-85
2022/05/25 04:34:53;;;;;;;17.17;13.18;;;;;;;;;;5038193;28;20052;-86
2022/05/25 04:40:05;;;;;;;18.65;12.25;;;;;;;;;;5055194;28;20037;-84
2022/05/25 04:42:31;;;;;;;17.25;11.95;;;;;;;;;;5049995;28;20048;-85
2022/05/25 04:45:00;;;;;;;18.67;12.43;;;;;;;;;;5058173;28;20139;-86
2022/05/25 04:47:30;;;;;;;15.10;10.60;;;;;;;;;;5058062;28;20135;-86
2022/05/25 04:49:56;;;;;;;16.42;10.60;;;;;;;;;;5058086;28;20051;-87
2022/05/25 04:52:22;;;;;;;17.73;11.50;;;;;;;;;;5054634;28;20430;-86
2022/05/25 04:54:48;;;;;;;19.55;10.85;;;;;;;;;;5054919;28;20049;-87
2022/05/25 04:57:20;;;;;;;18.58;11.27;;;;;;;;;;5073397;28;20037;-88
2022/05/25 04:59:54;;;;;;;19.58;11.45;;;;;;;;;;5055402;28;20241;-84
2022/05/25 05:02:20;;;;;;;16.60;11.77;;;;;;;;;;5072462;28;20052;-85
2022/05/25 05:04:46;;;;;;;17.05;10.30;;;;;;;;;;5075748;28;20032;-85
2022/05/25 05:07:14;;;;;;;15.85;11.02;;;;;;;;;;5037944;28;20044;-85
2022/05/25 05:09:41;;;;;;;15.23;11.52;;;;;;;;;;5072586;28;20053;-86
2022/05/25 05:12:08;;;;;;;14.98;10.43;;;;;;;;;;5054597;28;20434;-85
2022/05/25 05:14:34;;;;;;;18.08;10.57;;;;;;;;;;5039963;28;20044;-86
2022/05/25 05:17:02;;;;;;;16.75;11.65;;;;;;;;;;5037427;28;20041;-86
2022/05/25 05:19:29;;;;;;;16.27;10.57;;;10.70;99.90;;;;;;5038172;28;20135;-85
2022/05/25 05:21:57;;;;;;;17.45;10.88;;;;;;;;;;5038101;28;20079;-85
2022/05/25 05:24:25;;;;;;;13.25;10.57;;;;;;;;;;5058252;28;20075;-85
2022/05/25 05:26:52;;;;;;;17.95;10.85;;;;;;;;;;5054995;28;20051;-87
2022/05/25 05:29:18;;;;;;;11.95;9.98;;;;;;;;;;5047378;28;20488;-88
2022/05/25 05:31:44;;;;;;;18.75;10.88;;;;;;;;;;5056877;28;20048;-87
2022/05/25 05:34:10;;;;;;;17.75;11.32;;;;;;;;;;5040990;28;20132;-85
2022/05/25 05:36:50;;;;;;;12.43;10.38;;;;;;;;;;5062407;28;20416;-85
2022/05/25 05:39:18;;;;;;;18.80;9.98;;;;;;;;;;5071514;28;20105;-85
2022/05/25 05:41:49;;;;;;;13.27;9.65;;;;;;;;;;5058704;28;20086;-85
2022/05/25 05:44:18;;;;;;;14.43;9.32;;;;;;;;;;5060388;28;20051;-86
2022/05/25 05:46:45;;;;;;;11.50;9.50;;;;;;;;;;5059610;28;20515;-86
2022/05/25 05:49:12;;;;;;;16.70;10.70;;;;;;;;;;5069787;28;20079;-86
2022/05/25 05:51:38;;;;;;;14.95;9.88;;;;;;;;;;5076484;28;20130;-86
2022/05/25 05:54:05;;;;;;;15.32;9.52;;;;;;;;;;5094646;28;20039;-86
2022/05/25 05:56:32;;;;;;;12.80;9.40;;;;;;;;;;5058396;28;20476;-85
2022/05/25 05:58:59;;;;;;;20.20;9.52;;;;;;;;;;5072199;28;20476;-85
2022/05/25 06:01:25;;;;;;;12.45;9.10;;;;;;;;;;5073446;28;20047;-86
2022/05/25 06:03:51;;;;;;;15.10;9.43;;;;;;;;;;5064305;28;20043;-88
2022/05/25 06:06:17;;;;;;;11.95;8.82;;;;;;;;;;5091622;28;20041;-87
2022/05/25 06:08:46;;;;;;;17.10;8.85;;;;;;;;;;5089686;28;20237;-85
2022/05/25 06:11:16;;;;;;;11.10;8.75;;;;;;;;;;5037245;28;20041;-85
2022/05/25 06:13:43;;;;;;;11.27;9.30;;;;;;;;;;5071509;28;20050;-88
2022/05/25 06:21:39;;;;;;;14.07;8.57;;;;;;;;;;5071348;28;20044;-85
2022/05/25 06:24:05;;;;;;;10.82;7.93;;;;;;;;;;5073194;28;20438;-86
2022/05/25 06:26:32;;;;;;;10.20;8.20;;;;;;;;;;5056702;28;20055;-86
2022/05/25 06:28:58;;;;;;;10.65;8.60;;;;;;;;;;5057062;28;20044;-85
2022/05/25 06:31:25;;;;;;;10.60;7.13;;;;;;;;;;5062638;28;20036;-86
2022/05/25 06:33:51;;;;;;;10.38;7.88;;;;;;;;;;5065187;28;20064;-85
2022/05/25 06:36:22;;;;;;;11.45;7.50;;;;;;;;;;5055356;28;20135;-86
2022/05/25 06:38:49;;;;;;;14.70;7.65;;;;;;;;;;5073630;28;20040;-87
2022/05/25 06:41:15;;;;;;;12.52;8.45;;;;;;;;;;5073950;28;20400;-87
2022/05/25 06:43:41;;;;;;;13.25;7.30;;;;;;;;;;5056091;28;20051;-86
2022/05/25 06:46:08;;;;;;;9.93;7.15;;;;;;;;;;5055666;28;20563;-86
2022/05/25 06:48:34;;;;;;;13.57;7.18;;;;;;;;;;5073472;28;20054;-86
2022/05/25 06:51:10;;;;;;;7.95;6.00;;;;;;;;;;5056370;28;20079;-85
2022/05/25 06:53:36;;;;;;;8.85;5.53;;;;;;;;;;5055567;28;20036;-84
2022/05/25 06:56:02;;;;;;;8.50;6.95;;;13.20;99.90;;;;;;5070905;28;20435;-85
2022/05/25 06:58:33;;;;;;;10.10;6.20;;;;;;;;;;5072357;28;20109;-85
2022/05/25 07:00:59;;;;;;;10.10;6.13;;;;;;;;;;5070923;28;20043;-85
2022/05/25 07:03:25;;;;;;;11.13;6.68;;;;;;;;;;5068475;28;20040;-85
2022/05/25 07:05:52;;;;;;;7.82;5.53;;;;;;;;;;5072254;28;20046;-84
2022/05/25 07:08:19;;;;;;;9.55;6.30;;;;;;;;;;5073523;28;20036;-85
2022/05/25 07:10:47;;;;;;;10.75;6.47;;;;;;;;;;5072281;28;20047;-85
2022/05/25 07:13:14;;;;;;;8.98;5.88;;;;;;;;;;5070507;28;20488;-87
2022/05/25 07:15:40;;;;;;;13.38;6.60;;;;;;;;;;5040114;28;20139;-85
2022/05/25 07:18:07;;;;;;;8.27;6.20;;;;;;;;;;5056388;28;20063;-85
2022/05/25 07:20:33;;;;;;;10.25;6.68;;;;;;;;;;5056746;28;20063;-85
2022/05/25 07:22:59;;;;;;;14.15;6.40;;;;;;;;;;5039602;28;20542;-86
2022/05/25 07:25:25;;;;;;;12.50;6.60;;;;;;;;;;5059085;28;20127;-86
2022/05/25 07:27:51;;;;;;;7.82;6.18;;;;;;;;;;5056640;28;20496;-85
2022/05/25 07:30:18;;;;;;;6.65;5.38;;;;;;;;;;5040146;28;20052;-86
2022/05/25 07:32:45;;;;;;;13.73;6.38;;;;;;;;;;5075711;28;20127;-85
2022/05/25 07:35:13;;;;;;;8.85;6.07;;;14.60;99.90;;;;;;5055449;28;20052;-84
2022/05/25 07:37:40;;;;;;;8.68;6.50;;;;;;;;;;5053145;28;20051;-85
2022/05/25 07:40:21;;;;;;;8.32;5.60;;;15.00;99.90;;;;;;5059253;28;20484;-85
2022/05/25 07:42:55;;;;;;;9.60;6.55;;;14.80;99.90;;;;;;5075952;28;20054;-84
2022/05/25 07:45:22;;;;;;;8.48;6.15;;;;;;;;;;5075822;28;20048;-85
2022/05/25 07:47:51;;;;;;;7.38;6.50;;;;;;;;;;5049968;28;20080;-85
2022/05/25 07:50:17;;;;;;;7.55;6.75;;;;;;;;;;5055641;28;20050;-85
2022/05/25 07:52:43;;;;;;;8.50;6.35;;;;;;;;;;5038836;28;20041;-84
2022/05/25 07:55:11;;;;;;;7.25;5.85;;;;;;;;;;5038610;28;20131;-84
2022/05/25 07:57:37;;;;;;;8.45;6.45;;;;;;;;;;5059632;28;20044;-85
2022/05/25 08:00:05;;;;;;;8.73;5.50;;;15.30;99.90;;;;;;5058908;28;20079;-86
2022/05/25 08:08:17;;;;;;;8.02;6.00;;;15.10;99.90;;;;;;5073337;28;20443;-85
2022/05/25 08:10:47;;;;;;;6.63;6.00;;;15.50;99.90;;;;;;5058749;28;20059;-85
2022/05/25 08:13:17;;;;;;;6.20;5.60;;;15.50;99.90;;;;;;5058449;28;20048;-85
2022/05/25 08:15:43;;;;;;;8.43;7.25;;;;;;;;;;5069341;28;20048;-83
2022/05/25 08:18:11;;;;;;;7.30;6.40;;;15.80;99.90;;;;;;5063932;28;20048;-84
2022/05/25 08:20:37;;;;;;;6.90;6.22;;;;;;;;;;5044828;28;20093;-85
2022/05/25 08:23:07;;;;;;;7.18;6.00;;;;;;;;;;5046749;28;20044;-85
2022/05/25 08:25:34;;;;;;;10.05;6.57;;;;;;;;;;5046078;28;20450;-85
2022/05/25 08:28:00;;;;;;;8.27;5.85;;;;;;;;;;5057123;28;20045;-85
2022/05/25 08:30:27;;;;;;;7.38;6.28;;;;;;;;;;5042692;28;20044;-86
2022/05/25 08:32:53;;;;;;;9.15;6.00;;;;;;;;;;5075823;28;20472;-85
2022/05/25 08:35:20;;;;;;;6.32;5.72;;;;;;;;;;5075507;28;20060;-85
2022/05/25 08:37:46;;;;;;;8.05;6.40;;;;;;;;;;5077073;28;20523;-86
2022/05/25 08:40:14;;;;;;;9.27;6.32;;;;;;;;;;5058851;28;20058;-85
2022/05/25 08:42:51;;;;;;;10.95;5.40;;;16.30;99.90;;;;;;5076994;28;20083;-85
2022/05/25 08:45:18;;;;;;;9.82;4.63;;;;;;;;;;5054265;28;20036;-85
2022/05/25 08:47:52;;;;;;;5.50;5.00;;;16.30;99.90;;;;;;5076756;28;20424;-86
2022/05/25 08:50:18;;;;;;;8.35;4.47;;;;;;;;;;5051384;28;20420;-86
2022/05/25 08:52:45;;;;;;;5.53;5.00;;;;;;;;;;5066387;28;20373;-86
2022/05/25 08:55:20;;;;;;;9.38;5.72;;;16.50;99.90;;;;;;5046937;28;20041;-85
2022/05/25 08:57:54;;;;;;;9.15;5.28;;;16.50;99.90;;;;;;5039418;28;20040;-83
2022/05/25 09:00:22;;;;;;;5.47;4.78;;;;;;;;;;5040778;28;20407;-86
2022/05/25 09:03:28;;;;;;;5.80;4.60;;;16.40;99.90;;;;;;5047252;28;20043;-87
2022/05/25 09:06:05;;;;;;;7.88;5.38;;;16.80;99.90;;;;;;5055541;28;20053;-81
2022/05/25 09:08:44;;;;;;;5.35;4.35;;;;;;;;;;5056385;28;20120;-83
2022/05/25 09:12:02;;;;;;;10.75;3.78;;;16.70;99.90;;;;;;5039713;28;20520;-85
2022/05/25 09:14:35;;;;;;;5.03;4.55;;;;;;;;;;4914776;29;20066;-84
2022/05/25 09:17:05;;;;;;;7.00;5.38;;;;;;;;;;4901624;29;20043;-84
2022/05/25 09:19:37;;;;;;;7.55;4.88;;;16.90;99.90;;;;;;4902014;29;20492;-85
2022/05/25 09:22:10;;;;;;;9.10;4.25;;;16.80;99.90;;;;;;4918827;29;20584;-85
2022/05/25 09:24:36;;;;;;;4.80;4.22;;;;;;;;;;4887583;29;20629;-86
2022/05/25 09:27:05;;;;;;;6.38;4.47;;;16.60;99.90;;;;;;4884852;29;20048;-85
2022/05/25 09:29:31;;;;;;;5.90;5.30;;;;;;;;;;4901666;29;20054;-85
2022/05/25 09:32:11;;;;;;;7.13;4.18;;;16.60;99.90;;;;;;4917979;29;20141;-85
2022/05/25 09:34:44;;;;;;;6.47;4.13;;;;;;;;;;4933951;29;20434;-85
2022/05/25 09:37:20;;;;;;;4.68;4.28;;;;;;;;;;4917496;29;20095;-85
2022/05/25 09:39:46;;;;;;;4.38;3.60;;;;;;;;;;4915038;29;20148;-85
2022/05/25 09:42:18;;;;;;;8.07;4.18;;;16.50;99.90;;;;;;4901794;29;20047;-87
2022/05/25 09:44:52;;;;;;;5.15;4.40;;;;;;;;;;4901609;29;20055;-86
2022/05/25 09:47:38;;;;;;;11.90;5.28;;;16.70;99.90;;;;;;4916138;29;20146;-86
2022/05/25 09:50:06;;;;;;;7.85;4.60;;;16.60;99.90;;;;;;4921480;28;20118;-87
2022/05/25 09:52:41;;;;;;;5.47;3.90;;;;;;;;;;5054544;28;20052;-85
2022/05/25 09:55:11;;;;;;;7.57;4.68;;;;;;;;;;5037505;28;20055;-88
2022/05/25 09:57:39;;;;;;;7.82;5.20;;;;;;;;;;5037312;28;20139;-85
2022/05/25 10:00:05;;;;;;;6.43;4.80;;;;;;;;;;5072927;28;20104;-87
2022/05/25 10:03:02;;;;;;;6.60;4.90;;;16.60;99.90;;;;;;5070301;28;20044;-86
2022/05/25 10:05:33;;;;;;;7.88;5.47;;;16.90;99.90;;;;;;5049549;28;20079;-85
2022/05/25 10:08:15;;;;;;;8.77;4.93;;;;;;;;;;5046689;28;20044;-84
2022/05/25 10:11:00;;;;;;;7.18;5.30;;;;;;;;;;5057254;28;20559;-86
2022/05/25 10:13:30;;;;;;;5.25;4.15;;;;;;;;;;5056816;28;20051;-86
2022/05/25 10:15:58;;;;;;;7.65;4.65;;;;;;;;;;5049208;28;20044;-85
2022/05/25 10:18:42;;;;;;;4.90;4.07;;;16.50;99.90;;;;;;5044968;28;20071;-87
2022/05/25 10:21:12;;;;;;;5.50;4.20;;;;;;;;;;5075214;28;20056;-86
2022/05/25 10:23:42;;;;;;;4.63;3.92;;;16.50;99.90;;;;;;5049721;28;20500;-86
2022/05/25 10:26:19;;;;;;;5.97;4.20;;;;;;;;;;5063216;28;20032;-86
2022/05/25 10:29:04;;;;;;;6.97;5.60;;;;;;;;;;5070756;28;20468;-86
2022/05/25 10:37:06;;;;;;;5.63;4.72;;;16.70;99.90;;;;;;5067635;28;20059;-85
2022/05/25 10:39:35;;;;;;;6.35;5.03;;;;;;;;;;5047827;28;20156;-85
2022/05/25 10:42:22;;;;;;;6.63;4.90;;;16.50;99.90;;;;;;5048312;28;20427;-87
2022/05/25 10:44:48;;;;;;;6.00;5.40;;;;;;;;;;5067009;28;20075;-86
2022/05/25 10:47:18;;;;;;;7.95;5.70;;;;;;;;;;5064953;28;20040;-85
2022/05/25 10:49:44;;;;;;;8.77;6.22;;;;;;;;;;5047966;28;20091;-85
2022/05/25 10:52:32;;;;;;;6.35;5.03;;;16.50;99.90;;;;;;5071532;28;20109;-83
2022/05/25 10:54:58;;;;;;;6.78;2.90;;;;;;;;;;5070448;28;20129;-82
2022/05/25 10:57:34;;;;;;;3.22;2.05;;;;;;;;;;5067361;28;20055;-82
2022/05/25 11:00:03;;;;;;;2.28;1.85;;;;;;;;;;5069554;28;20048;-82
2022/05/25 11:02:48;;;;;;;2.80;2.38;;;;;;;;;;5070961;28;20047;-82
2022/05/25 11:05:14;;;;;;;5.07;2.90;;;;;;;;;;5077620;28;20409;-82
2022/05/25 11:07:41;;;;;;;4.32;2.33;;;;;;;;;;5056846;28;20063;-84
2022/05/25 11:10:48;;;;;;;4.00;2.40;;;14.40;99.90;;;;;;5060578;28;20441;-83
2022/05/25 11:13:20;;;;;;;3.53;3.22;;;;;;;;;;5059658;28;20048;-84
2022/05/25 11:15:49;;;;;;;3.38;3.08;;;;;;;;;;5069569;28;20044;-86
2022/05/25 11:18:15;;;;;;;5.90;2.97;;;;;;;;;;5068344;28;20086;-82
2022/05/25 11:20:47;;;;;;;4.50;2.60;;;;;;;;;;5071455;28;20045;-82
2022/05/25 11:23:19;;;;;;;3.08;2.88;;;;;;;;;;5051907;28;20179;-82
2022/05/25 11:26:03;;;;;;;3.38;2.55;;;;;;;;;;5036506;28;20554;-83
2022/05/25 11:28:38;;;;;;;2.42;2.20;;;;;;;;;;5047778;28;20842;-82
2022/05/25 11:31:20;;;;;;;2.95;2.63;;;;;;;;;;5062065;28;20048;-82
2022/05/25 11:34:11;;;;;;;3.50;3.20;;;14.80;99.90;;;;;;5072125;28;20060;-82
2022/05/25 11:36:47;;;;;;;5.18;3.97;;;;;;;;;;5054756;28;20084;-82
2022/05/25 11:39:31;;;;;;;5.80;4.30;;;15.00;99.90;;;;;;5048729;28;20119;-83
2022/05/25 11:41:58;;;;;;;;;;;;;;;;;;5045340;28;20054;-82
2022/05/25 11:44:43;;;;;;;6.25;5.65;;;15.50;99.90;;;;;;5039600;28;19920;-82
2022/05/25 11:47:12;;;;;;;7.70;6.90;;;;;;;;;;5055918;28;20048;-84
2022/05/25 11:49:57;;;;;;;8.88;6.95;;;;;;;;;;5055990;28;20369;-83
2022/05/25 11:52:45;;;;;;;10.00;5.95;;;;;;;;;;5038999;28;20099;-82
2022/05/25 11:55:18;;;;;;;8.82;7.88;;;;;;;;;;5069299;28;20104;-82
2022/05/25 11:57:53;;;;;;;8.68;7.68;;;;;;;;;;5074742;28;20518;-82
2022/05/25 12:00:38;;;;;;;6.13;3.10;;;;;;;;;;5073465;28;20071;-82
2022/05/25 12:03:07;;;;;;;2.75;1.20;;;;;;;;;;5074417;28;20078;-84
2022/05/25 12:05:54;;;;;;;2.15;1.30;;;16.70;99.90;;;;;;5074113;28;20400;-83
2022/05/25 12:08:29;;;;;;;1.33;1.20;;;;;;;;;;5079175;28;20499;-81
2022/05/25 12:11:19;;;;;;;2.85;1.10;;;;;;;;;;5056076;28;20495;-82
2022/05/25 12:14:08;;;;;;;3.40;1.70;;;16.70;99.90;;;;;;5066536;28;20063;-83
2022/05/25 12:16:44;;;;;;;2.40;1.73;;;16.70;99.90;;;;;;5048640;28;20097;-84
2022/05/25 12:19:13;;;;;;;6.25;1.08;;;;;;;;;;5056396;28;20625;-83
2022/05/25 12:21:49;;;;;;;4.95;1.40;;;16.70;99.90;;;;;;5070361;28;20052;-83
2022/05/25 12:24:22;;;;;;;1.27;1.17;;;17.00;99.90;;;;;;5038031;28;20130;-83
2022/05/25 12:26:48;;;;;;;3.90;1.27;;;16.50;99.90;;;;;;5044224;28;20040;-83
2022/05/25 12:29:15;;;;;;;1.70;1.42;;;;;;;;;;5076744;28;20040;-83
2022/05/25 12:31:42;;;;;;;3.10;1.17;;;;;;;;;;5069259;28;20044;-84
2022/05/25 12:34:14;;;;;;;5.13;1.00;;;17.10;99.90;;;;;;5072720;28;20052;-83
2022/05/25 12:36:42;;;;;;;1.75;0.80;;;17.10;99.90;;;;;;5062886;28;20040;-84
2022/05/25 12:39:09;;;;;;;1.67;1.00;;;17.10;99.90;;;;;;5068856;28;20052;-83
2022/05/25 12:41:37;;;;;;;2.10;0.90;;;17.30;99.90;;;;;;5068440;28;20031;-84
2022/05/25 12:49:38;;;;;;;6.20;1.35;;;17.40;99.90;;;;;;5072741;28;20454;-84
2022/05/25 12:52:27;;;;;;;1.65;1.20;;;17.30;99.90;;;;;;5060545;28;20606;-82
2022/05/25 12:55:03;;;;;;;8.93;1.30;;;17.30;99.90;;;;;;5042073;28;20424;-85
2022/05/25 12:57:45;;;;;;;5.18;1.30;;;17.10;99.90;;;;;;5057528;28;20040;-85
2022/05/25 13:00:26;;;;;;;3.53;1.10;;;;;;;;;;5057742;28;20130;-85
2022/05/25 13:02:53;;;;;;;6.63;1.00;;;17.20;99.90;;;;;;5063037;28;20071;-83
2022/05/25 13:05:46;;;;;;;7.25;1.42;;;17.20;99.90;;;;;;5057390;28;20440;-83
2022/05/25 13:08:47;;;;;;;1.80;1.30;;;17.40;99.90;;;;;;5056386;28;20093;-84
2022/05/25 13:11:40;;;;;;;2.53;0.98;;;17.30;99.90;;;;;;5057441;28;20050;-83
2022/05/25 13:14:20;;;;;;;2.20;1.60;;;17.50;99.90;;;;;;5048107;28;20477;-86
2022/05/25 13:16:46;;;;;;;5.07;1.58;;;;;;;;;;5058230;28;20036;-86
2022/05/25 13:19:31;;;;;;;3.40;1.00;;;;;;;;;;5056078;28;20480;-86
2022/05/25 13:22:02;;;;;;;3.28;1.80;;;;;;;;;;5073995;28;20040;-86
2022/05/25 13:24:37;;;;;;;11.05;1.40;;;;;;;;;;5051026;28;20075;-85
2022/05/25 13:27:16;;;;;;;2.75;1.10;;;;;;;;;;5056482;28;20051;-86
2022/05/25 13:29:56;;;;;;;2.13;0.70;;;17.00;99.90;;;;;;5074316;28;20522;-85
2022/05/25 13:32:36;;;;;;;2.08;0.90;;;;;;;;;;5072363;28;20044;-85
2022/05/25 13:35:20;;;;;;;7.85;1.42;;;17.30;99.90;;;;;;5070898;28;20442;-87
2022/05/25 13:38:08;;;;;;;3.78;1.30;;;17.00;99.90;;;;;;5073313;28;20056;-86
2022/05/25 13:40:47;;;;;;;5.32;1.08;;;16.70;99.90;;;;;;5048980;28;20079;-84
2022/05/25 13:43:18;;;;;;;0.98;0.90;;;16.90;99.90;;;;;;5037161;28;20071;-84
2022/05/25 13:45:46;;;;;;;1.10;0.95;;;16.90;99.90;;;;;;5038445;28;20123;-85
2022/05/25 13:48:23;;;;;;;0.80;0.80;;;;;;;;;;5048913;28;20087;-85
2022/05/25 13:50:56;;;;;;;3.35;0.98;;;17.10;99.90;;;;;;5037618;28;20043;-86
2022/05/25 13:53:48;;;;;;;;;;;16.70;99.90;;;;;;5053752;28;20036;-85
2022/05/25 13:56:25;;;;;;;1.67;0.80;;;16.80;99.90;;;;;;5054259;28;19930;-86
2022/05/25 13:58:54;;;;;;;1.15;0.88;;;;;;;;;;5049052;28;20040;-85
2022/05/25 14:01:22;;;;;;;2.10;1.02;;;16.90;99.90;;;;;;5061259;28;20040;-85
2022/05/25 14:03:56;;;;;;;2.45;0.77;;;16.80;99.90;;;;;;5072846;28;20392;-87
2022/05/25 14:06:22;;;;;;;3.17;1.10;;;;;;;;;;5071725;28;20523;-87
2022/05/25 14:11:49;;;;;;;5.88;1.23;;;16.80;99.90;;;;;;5072510;28;20429;-86
2022/05/25 14:14:30;;;;;;;6.90;1.00;;;17.00;99.90;;;;;;5056945;28;20051;-86
2022/05/25 14:17:19;;;;;;;3.50;1.20;;;16.90;99.90;;;;;;5052424;28;20055;-84
2022/05/25 14:19:50;;;;;;;4.35;1.17;;;16.90;99.90;;;;;;5085166;28;20412;-84
2022/05/25 14:22:17;;;;;;;2.08;1.13;;;;;;;;;;5071525;28;20105;-85
2022/05/25 14:24:46;;;;;;;2.05;0.95;;;16.80;99.90;;;;;;5091254;28;20052;-85
2022/05/25 14:27:24;;;;;;;3.13;1.15;;;16.70;99.90;;;;;;5047068;28;20520;-84
2022/05/25 14:29:51;;;;;;;1.60;1.25;;;;;;;;;;5054150;28;20076;-84
2022/05/25 14:32:26;;;;;;;5.50;2.47;;;16.90;99.90;;;;;;5087465;28;20127;-83
2022/05/25 14:34:56;;;;;;;5.50;1.45;;;16.60;99.90;;;;;;5070469;28;20079;-83
2022/05/25 14:37:27;;;;;;;3.95;1.20;;;16.70;99.90;;;;;;5073681;28;20508;-85
2022/05/25 14:39:59;;;;;;;4.38;1.55;;;16.80;99.90;;;;;;5073714;28;20134;-84
2022/05/25 14:42:28;;;;;;;3.05;1.17;;;16.70;99.90;;;;;;5057546;28;20037;-85
2022/05/25 14:44:57;;;;;;;2.03;1.00;;;17.00;99.90;;;;;;5047173;28;20118;-84
2022/05/25 14:47:31;;;;;;;1.88;1.10;;;16.90;99.90;;;;;;5056637;28;20056;-85
2022/05/25 14:50:22;;;;;;;3.15;1.48;;;17.00;99.90;;;;;;5073823;28;20048;-84
2022/05/25 14:53:11;;;;;;;3.58;1.15;;;16.90;99.90;;;;;;5073759;28;20048;-85
2022/05/25 14:55:52;;;;;;;3.00;1.05;;;16.90;99.90;;;;;;5068474;28;20044;-86
2022/05/25 14:58:18;;;;;;;2.13;0.95;;;;;;;;;;5055946;28;20130;-86